Time;durP1;ratioP1;P1;durP2;ratioP2;P2;SDS_P1;SDS_P2;PMS_P1;PMS_P2;Temp;Humidity;BMP_temperature;BMP_pressure;BME280_temperature;BME280_humidity;BME280_pressure;Samples;Min_cycle;Max_cycle;Signal;HPM_P1;HPM_P2
2022/10/02 00:02:27;;;;;;;5.13;2.10;;;13.30;99.90;;;;;;5030228;28;20037;-78
2022/10/02 00:04:59;;;;;;;3.67;2.22;;;13.40;99.90;;;;;;5034151;28;20030;-78
2022/10/02 00:07:33;;;;;;;4.47;2.33;;;13.20;99.90;;;;;;5031176;28;20072;-78
2022/10/02 00:10:02;;;;;;;;;;;13.10;99.90;;;;;;5030875;28;20029;-79
2022/10/02 00:12:30;;;;;;;3.60;2.20;;;13.20;99.90;;;;;;5029470;28;19979;-78
2022/10/02 00:15:03;;;;;;;5.47;2.78;;;13.30;99.90;;;;;;5031038;28;20030;-78
2022/10/02 00:17:36;;;;;;;4.50;2.28;;;13.50;99.90;;;;;;5031731;28;20029;-78
2022/10/02 00:20:11;;;;;;;4.88;2.70;;;13.40;99.90;;;;;;5030433;28;20032;-79
2022/10/02 00:22:55;;;;;;;;;;;13.40;99.90;;;;;;5030909;28;20028;-79
2022/10/02 00:25:45;;;;;;;6.32;2.70;;;13.40;99.90;;;;;;5029918;28;19992;-78
2022/10/02 00:28:24;;;;;;;3.67;1.77;;;13.40;99.90;;;;;;5029675;28;20483;-79
2022/10/02 00:30:59;;;;;;;4.35;2.35;;;13.10;99.90;;;;;;5030920;28;20041;-79
2022/10/02 00:33:30;;;;;;;;;;;13.10;99.90;;;;;;5030270;28;20078;-78
2022/10/02 00:36:02;;;;;;;4.03;2.00;;;12.90;99.90;;;;;;5029632;28;19972;-78
2022/10/02 00:38:42;;;;;;;5.28;2.65;;;12.80;99.90;;;;;;5031578;28;20057;-79
2022/10/02 00:41:51;;;;;;;4.45;2.35;;;13.00;99.90;;;;;;5031278;28;20029;-79
2022/10/02 00:44:46;;;;;;;3.75;2.30;;;13.10;99.90;;;;;;5030024;28;20108;-79
2022/10/02 00:47:37;;;;;;;5.50;2.30;;;13.20;99.90;;;;;;5030386;28;20120;-78
2022/10/02 00:50:14;;;;;;;3.63;1.90;;;13.40;99.90;;;;;;5033773;28;20033;-78
2022/10/02 00:52:48;;;;;;;3.83;1.67;;;13.20;99.90;;;;;;5031001;28;20037;-78
2022/10/02 00:55:30;;;;;;;4.90;2.08;;;13.50;99.90;;;;;;5030496;28;20061;-78
2022/10/02 00:58:20;;;;;;;3.25;1.70;;;13.30;99.90;;;;;;5030698;28;20384;-78
2022/10/02 01:00:57;;;;;;;8.32;2.00;;;13.30;99.90;;;;;;5031214;28;20034;-79
2022/10/02 01:03:28;;;;;;;5.25;1.90;;;13.40;99.90;;;;;;5037714;28;20143;-78
2022/10/02 01:05:53;;;;;;;3.58;1.90;;;13.50;99.90;;;;;;5032464;28;20029;-78
2022/10/02 01:08:20;;;;;;;6.32;2.10;;;13.20;99.90;;;;;;5029270;28;20097;-79
2022/10/02 01:10:47;;;;;;;3.38;1.67;;;13.10;99.90;;;;;;5029003;28;20021;-78
2022/10/02 01:13:12;;;;;;;5.00;1.80;;;13.10;99.90;;;;;;5031134;28;20509;-78
2022/10/02 01:15:46;;;;;;;5.13;2.08;;;13.10;99.90;;;;;;5031575;28;20148;-79
2022/10/02 01:18:13;;;;;;;3.67;1.95;;;12.90;99.90;;;;;;5029416;28;20041;-78
2022/10/02 01:20:46;;;;;;;4.18;1.80;;;12.90;99.90;;;;;;5029831;28;20148;-78
2022/10/02 01:23:36;;;;;;;7.63;2.10;;;12.70;99.90;;;;;;5038316;28;20029;-79
2022/10/02 01:26:02;;;;;;;3.28;1.83;;;12.60;99.90;;;;;;5032036;28;20559;-78
2022/10/02 01:28:28;;;;;;;2.38;1.17;;;12.60;99.90;;;;;;5030411;28;20107;-79
2022/10/02 01:31:00;;;;;;;3.30;1.60;;;12.60;99.90;;;;;;5030679;28;20404;-78
2022/10/02 01:33:26;;;;;;;3.30;1.52;;;12.60;99.90;;;;;;5029109;28;20471;-78
2022/10/02 01:35:51;;;;;;;3.38;2.00;;;12.60;99.90;;;;;;5030754;28;20043;-78
2022/10/02 01:38:21;;;;;;;4.22;2.05;;;12.70;99.90;;;;;;5028830;28;20060;-79
2022/10/02 01:40:47;;;;;;;3.35;1.92;;;12.80;99.90;;;;;;5029025;28;20060;-78
2022/10/02 01:43:25;;;;;;;5.20;1.73;;;12.60;99.90;;;;;;5029820;28;20056;-78
2022/10/02 01:46:02;;;;;;;4.63;1.85;;;12.50;99.90;;;;;;5032365;28;20036;-78
2022/10/02 01:48:52;;;;;;;5.82;2.25;;;12.50;99.90;;;;;;5031050;28;20048;-78
2022/10/02 01:51:42;;;;;;;3.88;1.73;;;12.40;99.90;;;;;;5030151;28;20124;-78
2022/10/02 01:54:26;;;;;;;4.53;2.10;;;12.50;99.90;;;;;;5028048;28;20479;-78
2022/10/02 01:57:11;;;;;;;2.83;1.48;;;12.50;99.90;;;;;;5031027;28;20025;-78
2022/10/02 02:00:07;;;;;;;4.30;2.60;;;12.40;99.90;;;;;;5028914;28;20056;-78
2022/10/02 02:02:51;;;;;;;6.72;2.90;;;12.60;99.90;;;;;;5028367;28;20116;-78
2022/10/02 02:05:41;;;;;;;4.15;2.13;;;12.70;99.90;;;;;;5035726;28;20029;-78
2022/10/02 02:08:16;;;;;;;6.88;2.60;;;12.50;99.90;;;;;;5028485;28;20710;-78
2022/10/02 02:10:56;;;;;;;4.75;2.42;;;12.50;99.90;;;;;;5028540;28;20483;-78
2022/10/02 02:13:27;;;;;;;3.20;1.90;;;12.50;99.90;;;;;;5030627;28;20525;-78
2022/10/02 02:16:18;;;;;;;3.15;1.90;;;12.30;99.90;;;;;;5030609;28;20025;-78
2022/10/02 02:19:09;;;;;;;3.80;2.00;;;12.20;99.90;;;;;;5029540;28;20056;-77
2022/10/02 02:21:51;;;;;;;4.32;2.53;;;12.10;99.90;;;;;;5028157;28;20029;-78
2022/10/02 02:24:25;;;;;;;4.28;2.08;;;12.10;99.90;;;;;;5028726;28;20089;-78
2022/10/02 02:26:55;;;;;;;3.70;1.97;;;12.10;99.90;;;;;;5029519;28;20066;-78
2022/10/02 02:29:23;;;;;;;3.60;1.88;;;12.10;99.90;;;;;;5029119;28;20029;-79
2022/10/02 02:31:51;;;;;;;3.60;1.42;;;12.20;99.90;;;;;;5028713;28;20037;-78
2022/10/02 02:34:22;;;;;;;4.30;1.60;;;12.20;99.90;;;;;;5027647;28;20136;-78
2022/10/02 02:36:55;;;;;;;3.45;1.60;;;12.40;99.90;;;;;;5029374;28;20040;-79
2022/10/02 02:39:55;;;;;;;2.50;1.30;;;12.20;99.90;;;;;;5037957;28;20028;-78
2022/10/02 02:42:24;;;;;;;3.00;1.60;;;12.50;99.90;;;;;;5026780;28;20031;-78
2022/10/02 02:45:08;;;;;;;2.38;1.20;;;12.60;99.90;;;;;;5029737;28;20471;-78
2022/10/02 02:47:40;;;;;;;3.53;1.35;;;12.40;99.90;;;;;;5028964;28;20387;-79
2022/10/02 02:50:10;;;;;;;4.90;1.52;;;12.40;99.90;;;;;;5028752;28;20029;-79
2022/10/02 02:52:46;;;;;;;2.08;1.20;;;12.50;99.90;;;;;;5029739;28;20041;-79
2022/10/02 02:55:18;;;;;;;2.70;1.10;;;12.30;99.90;;;;;;5040920;28;20049;-78
2022/10/02 02:57:59;;;;;;;2.00;0.85;;;12.10;99.90;;;;;;5044943;28;20029;-78
2022/10/02 03:00:25;;;;;;;2.92;1.83;;;12.30;99.90;;;;;;5028777;28;20068;-77
2022/10/02 03:02:53;;;;;;;5.78;1.50;;;12.50;99.90;;;;;;5026118;28;20057;-77
2022/10/02 03:05:21;;;;;;;2.15;1.17;;;12.60;99.90;;;;;;5023130;28;20025;-77
2022/10/02 03:07:55;;;;;;;3.97;1.48;;;12.50;99.90;;;;;;5023152;28;20030;-77
2022/10/02 03:10:36;;;;;;;3.38;1.33;;;12.50;99.90;;;;;;5024267;28;20029;-77
2022/10/02 03:13:29;;;;;;;4.88;1.40;;;12.40;99.90;;;;;;5023357;28;20088;-77
2022/10/02 03:16:16;;;;;;;4.20;1.38;;;12.50;99.90;;;;;;5024408;28;20033;-77
2022/10/02 03:19:04;;;;;;;2.00;0.98;;;12.50;99.90;;;;;;5021299;28;20071;-77
2022/10/02 03:21:53;;;;;;;4.78;1.13;;;12.50;99.90;;;;;;5019011;28;20408;-77
2022/10/02 03:24:37;;;;;;;4.75;2.08;;;12.60;99.90;;;;;;5026208;28;20101;-77
2022/10/02 03:27:34;;;;;;;2.03;1.00;;;12.40;99.90;;;;;;5023706;28;20026;-77
2022/10/02 03:30:07;;;;;;;4.85;2.85;;;12.30;99.90;;;;;;5027130;28;20092;-77
2022/10/02 03:32:35;;;;;;;2.55;1.52;;;12.30;99.90;;;;;;5022748;28;20095;-77
2022/10/02 03:35:03;;;;;;;2.90;1.23;;;12.30;99.90;;;;;;5029910;28;20044;-77
2022/10/02 03:37:30;;;;;;;3.50;1.33;;;12.30;99.90;;;;;;5027866;28;20278;-76
2022/10/02 03:40:04;;;;;;;4.68;1.33;;;12.30;99.90;;;;;;5025211;28;20380;-76
2022/10/02 03:42:33;;;;;;;2.78;1.00;;;12.40;99.90;;;;;;5026170;28;20035;-77
2022/10/02 03:44:59;;;;;;;3.67;1.23;;;12.30;99.90;;;;;;5027189;28;20044;-77
2022/10/02 03:47:24;;;;;;;3.10;1.13;;;12.20;99.90;;;;;;5032374;28;20033;-77
2022/10/02 03:49:50;;;;;;;2.47;1.00;;;12.00;99.90;;;;;;5028291;28;20479;-76
2022/10/02 03:52:18;;;;;;;3.13;1.10;;;11.90;99.90;;;;;;5027919;28;20076;-77
2022/10/02 03:54:45;;;;;;;2.55;1.35;;;11.90;99.90;;;;;;5025647;28;20025;-77
2022/10/02 03:57:20;;;;;;;2.67;1.27;;;12.00;99.90;;;;;;5028095;28;20099;-77
2022/10/02 04:00:11;;;;;;;4.85;1.13;;;12.10;99.90;;;;;;5026974;28;20036;-77
2022/10/02 04:02:56;;;;;;;2.97;1.08;;;12.20;99.90;;;;;;5029846;28;20048;-77
2022/10/02 04:05:41;;;;;;;2.10;1.10;;;12.20;99.90;;;;;;5027834;28;20491;-76
2022/10/02 04:08:12;;;;;;;2.28;1.15;;;12.20;99.90;;;;;;5029003;28;20350;-77
2022/10/02 04:11:22;;;;;;;3.58;1.20;;;12.10;99.90;;;;;;5029804;28;20040;-77
2022/10/02 04:14:05;;;;;;;3.00;0.90;;;12.10;99.90;;;;;;5041513;28;20045;-77
2022/10/02 04:16:39;;;;;;;3.00;1.17;;;12.00;99.90;;;;;;5041141;28;20081;-77
2022/10/02 04:19:16;;;;;;;4.85;1.58;;;12.00;99.90;;;;;;5033679;28;20092;-77
2022/10/02 04:22:18;;;;;;;3.83;2.00;;;11.90;99.90;;;;;;5027277;28;20041;-77
2022/10/02 04:24:44;;;;;;;5.45;1.40;;;11.80;99.90;;;;;;5023289;28;20041;-77
2022/10/02 04:27:31;;;;;;;3.03;1.50;;;11.70;99.90;;;;;;5026300;28;20021;-76
2022/10/02 04:30:12;;;;;;;2.53;1.13;;;11.50;99.90;;;;;;5026003;28;20064;-77
2022/10/02 04:32:38;;;;;;;2.97;1.40;;;11.40;99.90;;;;;;5022607;28;20037;-76
2022/10/02 04:35:31;;;;;;;3.45;1.00;;;11.10;99.90;;;;;;5024842;28;20036;-77
2022/10/02 04:38:16;;;;;;;3.08;1.65;;;11.20;99.90;;;;;;5027501;28;20029;-76
2022/10/02 04:40:56;;;;;;;4.97;1.35;;;11.30;99.90;;;;;;5026874;28;20159;-77
2022/10/02 04:43:43;;;;;;;3.83;1.20;;;11.30;99.90;;;;;;5027230;28;20060;-77
2022/10/02 04:46:27;;;;;;;2.20;1.23;;;11.50;99.90;;;;;;5026631;28;20057;-76
2022/10/02 04:49:10;;;;;;;2.55;1.27;;;11.50;99.90;;;;;;5034298;28;20080;-77
2022/10/02 04:51:42;;;;;;;1.83;1.08;;;11.60;99.90;;;;;;5026754;28;20045;-77
2022/10/02 04:54:36;;;;;;;2.28;1.00;;;11.50;99.90;;;;;;5026891;28;20030;-77
2022/10/02 04:57:22;;;;;;;2.85;0.90;;;11.50;99.90;;;;;;5037818;28;20541;-77
2022/10/02 04:59:57;;;;;;;2.83;1.13;;;11.30;99.90;;;;;;5026143;28;20071;-77
2022/10/02 05:02:32;;;;;;;;;;;11.20;99.90;;;;;;5027500;28;20408;-77
2022/10/02 05:05:16;;;;;;;3.17;1.15;;;11.10;99.90;;;;;;5032316;28;19913;-77
2022/10/02 05:07:57;;;;;;;2.90;1.10;;;11.20;99.90;;;;;;5021570;28;20475;-77
2022/10/02 05:10:32;;;;;;;6.22;1.75;;;11.20;99.90;;;;;;5024697;28;20035;-76
2022/10/02 05:13:27;;;;;;;2.25;1.25;;;11.20;99.90;;;;;;5025090;28;20071;-77
2022/10/02 05:15:53;;;;;;;;;;;11.30;99.90;;;;;;5035299;28;20388;-76
2022/10/02 05:18:24;;;;;;;1.83;0.93;;;11.40;99.90;;;;;;5025419;28;19917;-77
2022/10/02 05:21:16;;;;;;;2.13;1.17;;;11.40;99.90;;;;;;5026814;28;20479;-77
2022/10/02 05:23:50;;;;;;;3.97;1.80;;;11.30;99.90;;;;;;5032002;28;20073;-77
2022/10/02 05:26:23;;;;;;;2.40;1.20;;;11.30;99.90;;;;;;5027568;28;20029;-77
2022/10/02 05:29:33;;;;;;;2.50;1.30;;;11.30;99.90;;;;;;5025714;28;20041;-77
2022/10/02 05:32:27;;;;;;;1.80;0.93;;;11.40;99.90;;;;;;5028136;28;20531;-77
2022/10/02 05:34:56;;;;;;;2.28;1.00;;;11.40;99.90;;;;;;5031937;28;20044;-77
2022/10/02 05:37:42;;;;;;;2.60;1.30;;;11.40;99.90;;;;;;5024980;28;20072;-77
2022/10/02 05:40:14;;;;;;;2.22;1.00;;;11.50;99.90;;;;;;5024759;28;20144;-77
2022/10/02 05:43:09;;;;;;;2.40;1.40;;;11.60;99.90;;;;;;5024812;28;20033;-77
2022/10/02 05:45:37;;;;;;;;;;;11.80;99.90;;;;;;5022788;28;20045;-77
2022/10/02 05:48:09;;;;;;;4.18;1.20;;;12.00;99.90;;;;;;5021969;28;19944;-77
2022/10/02 05:50:37;;;;;;;2.90;1.20;;;11.80;99.90;;;;;;5024224;28;20041;-77
2022/10/02 05:53:25;;;;;;;3.80;1.20;;;11.60;99.90;;;;;;5028356;28;20910;-80
2022/10/02 05:55:57;;;;;;;2.35;1.20;;;11.60;99.90;;;;;;5035704;28;20033;-76
2022/10/02 05:58:30;;;;;;;2.33;1.17;;;11.40;99.90;;;;;;5021636;28;20476;-75
2022/10/02 06:01:10;;;;;;;2.50;1.30;;;11.50;99.90;;;;;;5027580;28;20034;-77
2022/10/02 06:03:47;;;;;;;2.58;1.17;;;11.50;99.90;;;;;;5034084;28;20049;-77
2022/10/02 06:06:13;;;;;;;2.28;1.10;;;11.70;99.90;;;;;;5045292;28;20025;-76
2022/10/02 06:08:57;;;;;;;2.17;1.20;;;11.70;99.90;;;;;;5037560;28;20021;-77
2022/10/02 06:11:39;;;;;;;3.25;1.35;;;11.70;99.90;;;;;;5028941;28;20034;-77
2022/10/02 06:14:09;;;;;;;2.13;0.93;;;11.80;99.90;;;;;;5023614;28;20041;-78
2022/10/02 06:16:51;;;;;;;1.88;1.08;;;11.80;99.90;;;;;;5033551;28;20090;-77
2022/10/02 06:19:28;;;;;;;3.80;1.40;;;11.80;99.90;;;;;;5027486;28;20033;-77
2022/10/02 06:22:04;;;;;;;1.40;0.82;;;11.80;99.90;;;;;;5022060;28;20025;-78
2022/10/02 06:24:38;;;;;;;3.33;1.13;;;11.80;99.90;;;;;;5026140;28;20040;-76
2022/10/02 06:27:14;;;;;;;2.42;1.30;;;11.70;99.90;;;;;;5029932;28;20021;-77
2022/10/02 06:29:55;;;;;;;3.22;0.90;;;11.60;99.90;;;;;;5026117;28;20380;-77
2022/10/02 06:32:38;;;;;;;3.20;0.98;;;11.70;99.90;;;;;;5033590;28;20037;-77
2022/10/02 06:35:13;;;;;;;1.65;0.90;;;11.80;99.90;;;;;;5030535;28;20029;-76
2022/10/02 06:38:00;;;;;;;3.53;1.10;;;11.70;99.90;;;;;;5032094;28;20033;-76
2022/10/02 06:40:51;;;;;;;3.17;1.40;;;11.70;99.90;;;;;;5025938;28;20033;-76
2022/10/02 06:43:17;;;;;;;3.13;1.13;;;11.80;99.90;;;;;;5029067;28;20041;-77
2022/10/02 06:46:07;;;;;;;2.78;1.23;;;11.80;99.90;;;;;;5028416;28;20033;-76
2022/10/02 06:49:10;;;;;;;4.35;1.13;;;12.00;99.90;;;;;;5027016;28;20510;-76
2022/10/02 06:52:06;;;;;;;3.60;1.48;;;12.00;99.90;;;;;;5035112;28;20041;-77
2022/10/02 06:54:56;;;;;;;5.22;1.85;;;12.10;99.90;;;;;;5025649;28;20037;-77
2022/10/02 06:57:49;;;;;;;2.70;1.40;;;12.20;99.90;;;;;;5034884;28;20410;-76
2022/10/02 07:00:18;;;;;;;4.43;1.70;;;12.20;99.90;;;;;;5024253;28;20597;-77
2022/10/02 07:02:56;;;;;;;5.13;2.03;;;12.10;99.90;;;;;;5031266;28;20388;-77
2022/10/02 07:05:39;;;;;;;3.38;1.67;;;11.90;99.90;;;;;;5024679;28;20029;-77
2022/10/02 07:08:20;;;;;;;4.35;1.58;;;11.90;99.90;;;;;;5028775;28;20029;-79
2022/10/02 07:10:59;;;;;;;4.57;1.55;;;12.00;99.90;;;;;;5038650;28;20033;-77
2022/10/02 07:13:25;;;;;;;2.25;1.20;;;12.00;99.90;;;;;;5033623;28;20083;-77
2022/10/02 07:16:08;;;;;;;4.25;1.60;;;12.10;99.90;;;;;;5040251;28;20061;-77
2022/10/02 07:18:59;;;;;;;4.45;1.50;;;12.00;99.90;;;;;;5025423;28;20483;-76
2022/10/02 07:21:31;;;;;;;2.70;1.42;;;12.00;99.90;;;;;;5028348;28;21002;-76
2022/10/02 07:24:04;;;;;;;3.50;1.23;;;12.10;99.90;;;;;;5034287;28;20116;-79
2022/10/02 07:26:45;;;;;;;2.03;1.38;;;12.20;99.90;;;;;;5029858;28;20044;-81
2022/10/02 07:29:13;;;;;;;2.22;1.00;;;12.30;99.90;;;;;;5039087;28;20387;-82
2022/10/02 07:31:47;;;;;;;2.55;0.95;;;12.40;99.90;;;;;;5024851;28;20032;-80
2022/10/02 07:34:27;;;;;;;3.63;1.03;;;12.40;99.90;;;;;;5027113;28;20025;-81
2022/10/02 07:37:34;;;;;;;2.22;1.00;;;12.50;99.90;;;;;;5036638;28;20055;-81
2022/10/02 07:40:21;;;;;;;3.05;1.10;;;12.60;99.90;;;;;;5026878;28;20045;-81
2022/10/02 07:42:54;;;;;;;4.78;1.50;;;12.60;99.90;;;;;;5045980;28;20560;-81
2022/10/02 07:45:22;;;;;;;4.35;1.50;;;12.60;99.90;;;;;;5044209;28;20095;-80
2022/10/02 07:48:12;;;;;;;2.45;1.23;;;12.60;99.90;;;;;;5026851;28;20026;-81
2022/10/02 07:51:45;;;;;;;2.50;1.27;;;12.70;99.90;;;;;;5027430;28;20029;-81
2022/10/02 07:54:15;;;;;;;4.30;2.20;;;12.70;99.90;;;;;;5022232;28;20067;-80
2022/10/02 07:56:44;;;;;;;2.08;1.40;;;12.70;99.90;;;;;;5025331;28;20030;-81
2022/10/02 07:59:14;;;;;;;1.95;1.13;;;12.80;99.90;;;;;;5026686;28;20141;-81
2022/10/02 08:01:42;;;;;;;2.58;1.20;;;12.80;99.90;;;;;;5023414;28;20025;-81
2022/10/02 08:04:23;;;;;;;2.88;1.88;;;12.90;99.90;;;;;;5020499;28;20061;-81
2022/10/02 08:07:00;;;;;;;3.65;1.60;;;12.90;99.90;;;;;;5022332;28;20057;-81
2022/10/02 08:09:37;;;;;;;2.42;1.20;;;13.00;99.90;;;;;;5022530;28;20172;-81
2022/10/02 08:12:11;;;;;;;2.63;1.30;;;13.00;99.90;;;;;;5020247;28;20073;-82
2022/10/02 08:14:40;;;;;;;3.40;1.20;;;13.00;99.90;;;;;;5021901;28;20384;-82
2022/10/02 08:17:37;;;;;;;4.53;1.30;;;13.10;99.90;;;;;;5023966;28;20099;-81
2022/10/02 08:20:28;;;;;;;2.40;1.13;;;13.20;99.90;;;;;;5023282;28;20372;-86
2022/10/02 08:23:05;;;;;;;2.45;1.20;;;13.20;99.90;;;;;;5027473;28;20068;-81
2022/10/02 08:25:38;;;;;;;5.45;1.65;;;13.40;99.90;;;;;;5028199;28;20037;-83
2022/10/02 08:28:16;;;;;;;3.22;1.50;;;13.40;99.90;;;;;;5028956;28;20480;-83
2022/10/02 08:30:42;;;;;;;2.28;1.17;;;13.40;99.90;;;;;;5026222;28;20033;-83
2022/10/02 08:33:16;;;;;;;2.78;1.50;;;13.40;99.90;;;;;;5033315;28;20442;-83
2022/10/02 08:35:59;;;;;;;2.88;1.30;;;13.50;99.90;;;;;;5025047;28;20070;-80
2022/10/02 08:38:38;;;;;;;3.10;1.13;;;13.60;99.90;;;;;;5026194;28;20038;-84
2022/10/02 08:41:35;;;;;;;3.67;1.30;;;13.80;99.90;;;;;;5021926;28;20725;-79
2022/10/02 08:44:29;;;;;;;2.35;0.95;;;13.90;99.90;;;;;;5023193;28;20106;-80
2022/10/02 08:47:17;;;;;;;2.50;1.10;;;14.20;99.90;;;;;;5024124;28;20029;-81
2022/10/02 08:50:13;;;;;;;3.88;1.70;;;14.10;99.90;;;;;;5029286;28;20698;-80
2022/10/02 08:53:07;;;;;;;2.50;1.20;;;14.00;99.90;;;;;;5024383;28;20072;-80
2022/10/02 08:56:02;;;;;;;5.13;1.20;;;14.10;99.90;;;;;;5030111;28;20048;-81
2022/10/02 08:58:27;;;;;;;3.15;1.35;;;14.10;99.90;;;;;;5040604;28;20033;-79
2022/10/02 09:01:16;;;;;;;4.22;1.17;;;14.20;99.90;;;;;;5026582;28;20032;-80
2022/10/02 09:04:03;;;;;;;2.28;1.35;;;14.30;99.90;;;;;;5026609;28;20036;-80
2022/10/02 09:06:53;;;;;;;2.63;1.10;;;14.40;99.90;;;;;;5021946;28;20037;-80
2022/10/02 09:09:34;;;;;;;2.20;1.35;;;14.60;99.90;;;;;;5023068;28;20112;-80
2022/10/02 09:12:36;;;;;;;2.85;1.20;;;14.70;99.90;;;;;;5021691;28;20092;-81
2022/10/02 09:15:15;;;;;;;2.28;1.00;;;14.70;99.90;;;;;;5023939;28;20693;-79
2022/10/02 09:18:02;;;;;;;2.50;0.95;;;14.90;99.90;;;;;;5022210;28;20036;-80
2022/10/02 09:20:41;;;;;;;1.73;0.82;;;15.00;99.90;;;;;;5024357;28;20043;-80
2022/10/02 09:23:46;;;;;;;2.20;0.90;;;15.20;99.90;;;;;;5025758;28;20390;-81
2022/10/02 09:26:23;;;;;;;1.90;0.70;;;15.40;99.90;;;;;;5024805;28;20025;-79
2022/10/02 09:29:08;;;;;;;1.38;0.55;;;15.50;99.90;;;;;;5031150;28;20022;-80
2022/10/02 09:32:04;;;;;;;2.25;0.90;;;15.30;99.90;;;;;;5027642;28;20033;-81
2022/10/02 09:34:29;;;;;;;1.30;0.70;;;15.30;99.90;;;;;;5026145;28;20812;-81
2022/10/02 09:37:15;;;;;;;3.90;1.10;;;15.20;99.90;;;;;;5022830;28;20154;-81
2022/10/02 09:40:02;;;;;;;1.35;0.98;;;15.30;99.90;;;;;;5024868;28;20506;-81
2022/10/02 09:42:49;;;;;;;4.10;0.90;;;15.40;99.90;;;;;;5028341;28;20364;-81
2022/10/02 09:45:34;;;;;;;1.63;0.80;;;15.50;99.90;;;;;;5024933;28;20561;-80
2022/10/02 09:48:09;;;;;;;1.65;0.88;;;15.50;99.90;;;;;;5025147;28;20029;-80
2022/10/02 09:51:04;;;;;;;2.35;1.05;;;15.70;99.90;;;;;;5030726;28;20049;-81
2022/10/02 09:53:45;;;;;;;;;;;15.90;99.90;;;;;;5031675;28;20049;-80
2022/10/02 09:56:29;;;;;;;1.77;0.88;;;15.90;99.90;;;;;;5025976;28;20008;-80
2022/10/02 09:59:06;;;;;;;1.70;0.95;;;15.90;99.90;;;;;;5028751;28;20052;-81
2022/10/02 10:01:56;;;;;;;1.67;0.85;;;15.90;99.90;;;;;;5024336;28;20032;-81
2022/10/02 10:04:50;;;;;;;1.63;0.88;;;15.80;99.90;;;;;;5025340;28;20033;-80
2022/10/02 10:07:42;;;;;;;2.20;1.13;;;15.90;99.90;;;;;;5027556;28;20064;-81
2022/10/02 10:10:23;;;;;;;2.45;0.85;;;16.00;99.90;;;;;;5024565;28;20911;-80
2022/10/02 10:13:16;;;;;;;2.17;1.00;;;16.10;99.90;;;;;;5024682;28;20045;-80
2022/10/02 10:16:13;;;;;;;1.80;0.88;;;16.40;99.90;;;;;;5024644;28;20033;-81
2022/10/02 10:19:16;;;;;;;1.90;1.00;;;16.30;99.90;;;;;;5023033;28;20026;-81
2022/10/02 10:22:13;;;;;;;3.40;1.27;;;16.50;99.90;;;;;;5025172;28;20026;-81
2022/10/02 10:24:49;;;;;;;3.05;1.15;;;16.60;99.90;;;;;;5023794;28;20037;-80
2022/10/02 10:27:39;;;;;;;2.75;1.10;;;16.90;99.90;;;;;;5026061;28;20115;-81
2022/10/02 10:30:25;;;;;;;2.78;1.50;;;16.90;99.90;;;;;;5021366;28;20037;-80
2022/10/02 10:33:20;;;;;;;2.67;1.38;;;17.20;99.90;;;;;;5023382;28;20059;-81
2022/10/02 10:39:38;;;;;;;1.92;0.90;;;17.30;99.90;;;;;;5022797;28;20491;-80
2022/10/02 10:42:23;;;;;;;2.58;0.90;;;17.40;99.90;;;;;;5023731;28;20035;-80
2022/10/02 10:45:10;;;;;;;;;;;17.40;99.90;;;;;;5026214;28;20071;-81
2022/10/02 10:47:45;;;;;;;3.55;1.08;;;17.60;99.90;;;;;;5022195;28;20266;-81
2022/10/02 10:50:28;;;;;;;2.90;0.98;;;17.70;99.90;;;;;;5021311;28;20563;-81
2022/10/02 10:53:10;;;;;;;2.33;0.80;;;17.80;99.90;;;;;;5022460;28;20033;-81
2022/10/02 10:56:18;;;;;;;1.25;0.73;;;17.90;99.90;;;;;;5020210;28;20549;-80
2022/10/02 10:59:11;;;;;;;1.15;0.70;;;17.90;99.90;;;;;;5021460;28;20037;-80
2022/10/02 11:02:12;;;;;;;2.15;0.90;;;18.00;99.90;;;;;;5024685;28;20246;-81
2022/10/02 11:05:00;;;;;;;2.13;0.90;;;18.30;99.90;;;;;;5020636;28;20128;-81
2022/10/02 11:07:51;;;;;;;1.13;0.63;;;18.20;99.90;;;;;;5020639;28;20068;-81
2022/10/02 11:10:40;;;;;;;1.90;0.90;;;18.10;99.90;;;;;;5026834;28;20033;-81
2022/10/02 11:13:35;;;;;;;1.88;1.00;;;18.20;99.90;;;;;;5020601;28;20049;-80
2022/10/02 11:16:16;;;;;;;1.80;0.75;;;18.60;99.90;;;;;;5021066;28;20025;-81
2022/10/02 11:19:17;;;;;;;2.10;0.70;;;18.80;99.90;;;;;;5021013;28;20040;-80
2022/10/02 11:21:58;;;;;;;2.28;1.02;;;18.90;99.90;;;;;;5020616;28;20026;-81
2022/10/02 11:24:53;;;;;;;1.38;0.70;;;19.00;99.90;;;;;;5023789;28;20097;-78
2022/10/02 11:27:40;;;;;;;2.78;0.70;;;19.00;99.90;;;;;;5025897;28;20025;-81
2022/10/02 11:30:11;;;;;;;1.50;0.65;;;18.70;99.60;;;;;;5023967;28;20116;-81
2022/10/02 11:33:11;;;;;;;1.35;0.68;;;18.90;99.90;;;;;;5024950;28;20099;-80
2022/10/02 11:36:04;;;;;;;1.20;0.70;;;19.10;99.90;;;;;;5030948;28;20095;-81
2022/10/02 11:38:51;;;;;;;2.88;1.30;;;19.10;99.90;;;;;;5029778;28;20026;-80
2022/10/02 11:41:42;;;;;;;2.78;0.75;;;19.20;99.90;;;;;;5027346;28;20034;-81
2022/10/02 11:44:32;;;;;;;2.95;1.10;;;19.30;99.90;;;;;;5026411;28;20021;-81
2022/10/02 11:47:14;;;;;;;3.40;1.10;;;19.20;99.90;;;;;;5031679;28;20020;-82
2022/10/02 11:49:59;;;;;;;1.42;0.70;;;19.20;99.90;;;;;;5037343;28;20411;-81
2022/10/02 11:52:43;;;;;;;2.25;0.90;;;19.20;99.60;;;;;;5034383;28;20111;-80
2022/10/02 11:55:30;;;;;;;1.73;0.80;;;19.30;99.90;;;;;;5036400;28;20021;-80
2022/10/02 11:58:15;;;;;;;1.67;0.85;;;19.00;99.50;;;;;;5034455;28;20358;-80
2022/10/02 12:01:04;;;;;;;1.63;0.70;;;19.00;99.60;;;;;;5040107;28;20037;-80
2022/10/02 12:04:02;;;;;;;1.63;0.70;;;19.20;99.70;;;;;;5033294;28;20048;-81
2022/10/02 12:06:45;;;;;;;2.92;1.30;;;19.40;99.60;;;;;;5034927;28;20483;-81
2022/10/02 12:09:38;;;;;;;2.80;0.95;;;19.70;99.60;;;;;;5032074;28;20511;-81
2022/10/02 12:12:50;;;;;;;2.85;0.73;;;19.80;98.90;;;;;;5028415;28;20052;-81
2022/10/02 12:15:24;;;;;;;1.85;0.90;;;19.70;99.70;;;;;;5035827;28;20041;-81
2022/10/02 12:18:09;;;;;;;3.55;0.80;;;20.00;99.90;;;;;;5029808;28;20033;-80
2022/10/02 12:27:17;;;;;;;2.40;0.90;;;20.30;99.70;;;;;;5033151;28;20134;-81
2022/10/02 12:30:04;;;;;;;2.53;0.88;;;20.20;98.60;;;;;;5035952;28;20029;-80
2022/10/02 12:32:53;;;;;;;2.25;1.00;;;20.20;99.30;;;;;;5033245;28;20120;-81
2022/10/02 12:35:25;;;;;;;2.45;1.05;;;20.40;99.00;;;;;;5032965;28;20068;-80
2022/10/02 12:37:59;;;;;;;2.72;1.35;;;20.40;99.80;;;;;;5031917;28;20037;-81
2022/10/02 12:40:32;;;;;;;2.72;1.20;;;20.20;99.10;;;;;;5032444;28;20044;-81
2022/10/02 12:43:31;;;;;;;2.88;1.00;;;20.30;99.20;;;;;;5026415;28;20033;-78
2022/10/02 12:46:31;;;;;;;1.60;0.98;;;20.30;99.40;;;;;;5036105;28;20466;-81
2022/10/02 12:49:00;;;;;;;2.60;0.88;;;20.30;99.70;;;;;;5027606;28;20025;-79
2022/10/02 12:51:54;;;;;;;2.63;0.90;;;20.50;99.20;;;;;;5026160;28;20056;-80
2022/10/02 12:55:24;;;;;;;3.03;0.93;;;20.60;99.00;;;;;;5025543;28;20507;-80
2022/10/02 12:58:01;;;;;;;1.73;0.90;;;20.70;98.90;;;;;;5040457;28;20033;-80
2022/10/02 13:01:02;;;;;;;7.55;1.30;;;20.60;99.40;;;;;;5026327;28;20028;-78
2022/10/02 13:03:48;;;;;;;2.45;1.25;;;20.90;99.90;;;;;;5029678;28;20029;-79
2022/10/02 13:06:46;;;;;;;4.25;0.90;;;21.10;99.90;;;;;;5020016;28;20072;-80
2022/10/02 13:09:54;;;;;;;2.47;1.30;;;21.30;99.90;;;;;;5040039;28;20420;-80
2022/10/02 13:12:50;;;;;;;1.85;0.98;;;21.50;99.60;;;;;;5025686;28;20077;-79
2022/10/02 13:15:38;;;;;;;3.00;1.20;;;21.40;98.70;;;;;;5033688;28;20025;-80
2022/10/02 13:18:28;;;;;;;4.00;2.22;;;21.20;99.60;;;;;;5030185;28;20438;-80
2022/10/02 13:21:14;;;;;;;2.35;1.30;;;21.30;99.90;;;;;;5028821;28;20035;-80
2022/10/02 13:24:04;;;;;;;5.13;1.23;;;21.30;99.70;;;;;;5025582;28;20522;-80
2022/10/02 13:26:50;;;;;;;3.22;1.10;;;21.10;98.90;;;;;;5025769;28;20021;-80
2022/10/02 13:29:41;;;;;;;2.80;1.27;;;21.20;99.60;;;;;;5024798;28;20052;-80
2022/10/02 13:32:13;;;;;;;2.95;1.25;;;21.70;99.50;;;;;;5032317;28;20493;-80
2022/10/02 13:35:17;;;;;;;2.60;0.98;;;21.60;98.00;;;;;;5036011;28;20091;-80
2022/10/02 13:38:07;;;;;;;2.25;1.13;;;21.90;99.80;;;;;;5029723;28;20028;-81
2022/10/02 13:40:40;;;;;;;2.70;1.42;;;21.80;98.40;;;;;;5031768;28;20124;-80
2022/10/02 13:43:33;;;;;;;3.67;1.50;;;21.90;98.90;;;;;;5026366;28;20041;-79
2022/10/02 13:46:29;;;;;;;3.63;1.30;;;21.80;99.90;;;;;;5025597;28;20408;-79
2022/10/02 13:49:24;;;;;;;2.60;1.30;;;22.00;99.90;;;;;;5026778;28;20030;-79
2022/10/02 13:52:00;;;;;;;;;;;22.20;99.90;;;;;;5023463;28;20045;-80
2022/10/02 13:54:28;;;;;;;3.25;1.08;;;22.10;98.60;;;;;;5027161;28;20292;-79
2022/10/02 13:57:14;;;;;;;2.70;1.33;;;21.90;98.40;;;;;;5035670;28;20591;-80
2022/10/02 13:59:42;;;;;;;3.10;1.38;;;21.90;98.70;;;;;;5025401;28;20029;-80
2022/10/02 14:02:26;;;;;;;3.83;1.88;;;21.90;98.90;;;;;;5032374;28;20028;-80
2022/10/02 14:04:59;;;;;;;3.38;1.70;;;21.90;99.20;;;;;;5026013;28;20033;-81
2022/10/02 14:07:56;;;;;;;4.20;1.67;;;22.00;99.00;;;;;;5024823;28;20056;-81
2022/10/02 14:10:56;;;;;;;4.95;1.50;;;21.80;98.90;;;;;;5024627;28;20392;-81
2022/10/02 14:14:02;;;;;;;2.70;1.92;;;21.80;99.00;;;;;;5027963;28;20631;-80
2022/10/02 14:16:48;;;;;;;3.20;1.63;;;21.70;99.30;;;;;;5021579;28;20043;-81